createdAt,value
2022-12-06T00:01:09.244Z,1.08
2022-12-06T00:03:37.114Z,1.08
2022-12-06T00:06:06.828Z,1.33
2022-12-06T00:08:33.557Z,2.00
2022-12-06T00:11:12.772Z,0.98
2022-12-06T00:13:41.075Z,1.25
2022-12-06T00:16:11.877Z,1.25
2022-12-06T00:18:41.247Z,1.30
2022-12-06T00:21:22.389Z,1.40
2022-12-06T00:23:52.078Z,1.80
2022-12-06T00:26:19.922Z,1.40
2022-12-06T00:28:46.883Z,1.10
2022-12-06T00:31:18.696Z,0.60
2022-12-06T00:33:45.473Z,0.70
2022-12-06T00:36:17.963Z,0.82
2022-12-06T00:38:45.515Z,0.50
2022-12-06T00:41:17.585Z,1.10
2022-12-06T00:43:45.179Z,0.88
2022-12-06T00:46:20.138Z,0.60
2022-12-06T00:48:48.214Z,1.70
2022-12-06T00:51:16.702Z,0.70
2022-12-06T00:53:46.986Z,0.95
2022-12-06T00:56:14.060Z,1.00
2022-12-06T00:58:40.864Z,0.70
2022-12-06T01:01:22.735Z,1.00
2022-12-06T01:03:52.259Z,1.10
2022-12-06T01:06:22.798Z,0.80
2022-12-06T01:08:49.824Z,3.50
2022-12-06T01:11:16.694Z,0.95
2022-12-06T01:13:43.910Z,0.82
2022-12-06T01:16:16.040Z,1.00
2022-12-06T01:18:43.738Z,1.05
2022-12-06T01:21:13.515Z,1.05
2022-12-06T01:23:40.114Z,0.88
2022-12-06T01:26:07.787Z,1.00
2022-12-06T01:28:34.611Z,0.70
2022-12-06T01:31:07.403Z,0.63
2022-12-06T01:33:34.307Z,0.70
2022-12-06T01:36:01.066Z,0.70
2022-12-06T01:38:27.887Z,0.85
2022-12-06T01:40:54.727Z,0.80
2022-12-06T01:43:34.335Z,0.80
2022-12-06T01:46:21.731Z,0.52
2022-12-06T01:48:52.668Z,0.45
2022-12-06T01:51:19.768Z,0.43
2022-12-06T01:53:49.440Z,0.47
2022-12-06T01:56:16.341Z,0.80
2022-12-06T01:58:45.314Z,0.73
2022-12-06T02:01:12.082Z,0.57
2022-12-06T02:03:39.256Z,0.50
2022-12-06T02:06:08.404Z,0.45
2022-12-06T02:08:36.739Z,0.50
2022-12-06T02:11:04.456Z,0.85
2022-12-06T02:13:33.808Z,0.85
2022-12-06T02:16:00.465Z,0.73
2022-12-06T02:18:41.274Z,0.80
2022-12-06T02:21:20.879Z,1.90
2022-12-06T02:24:18.396Z,1.08
2022-12-06T02:26:51.968Z,1.05
2022-12-06T02:29:24.542Z,0.68
2022-12-06T02:32:03.357Z,0.90
2022-12-06T02:34:33.788Z,0.82
2022-12-06T02:37:24.490Z,1.00
2022-12-06T02:40:15.909Z,0.93
2022-12-06T02:42:53.895Z,0.80
2022-12-06T02:45:27.928Z,0.77
2022-12-06T02:47:58.258Z,1.52
2022-12-06T02:50:31.751Z,0.75
2022-12-06T02:53:02.177Z,0.95
2022-12-06T02:55:30.981Z,0.70
2022-12-06T02:57:57.728Z,1.48
2022-12-06T03:03:11.054Z,1.02
2022-12-06T03:05:50.048Z,1.20
2022-12-06T03:08:31.205Z,0.73
2022-12-06T03:11:01.273Z,0.80
2022-12-06T03:13:39.635Z,1.30
2022-12-06T03:16:17.447Z,0.88
2022-12-06T03:18:53.419Z,1.50
2022-12-06T03:21:27.774Z,0.90
2022-12-06T03:23:55.202Z,1.40
2022-12-06T03:26:27.811Z,0.90
2022-12-06T03:28:58.150Z,0.63
2022-12-06T03:31:27.705Z,0.80
2022-12-06T03:34:02.480Z,1.15
2022-12-06T03:36:31.909Z,0.82
2022-12-06T03:39:02.555Z,0.70
2022-12-06T03:41:37.390Z,0.95
2022-12-06T03:44:04.987Z,1.17
2022-12-06T03:46:35.844Z,0.88
2022-12-06T03:49:10.373Z,0.70
2022-12-06T03:51:39.444Z,1.55
2022-12-06T03:54:07.513Z,0.88
2022-12-06T03:56:36.800Z,0.77
2022-12-06T03:59:11.427Z,0.73
2022-12-06T04:01:39.386Z,1.02
2022-12-06T04:04:06.243Z,0.60
2022-12-06T04:06:34.155Z,0.50
2022-12-06T04:09:19.424Z,0.70
2022-12-06T04:11:46.290Z,0.60
2022-12-06T04:14:13.235Z,1.30
2022-12-06T04:17:00.457Z,0.80
2022-12-06T04:19:27.093Z,0.75
2022-12-06T04:22:12.144Z,0.82
2022-12-06T04:24:38.778Z,0.70
2022-12-06T04:27:23.960Z,0.30
2022-12-06T04:30:09.138Z,0.65
2022-12-06T04:32:54.033Z,0.88
2022-12-06T04:35:39.094Z,1.25
2022-12-06T04:38:24.539Z,0.93
2022-12-06T04:40:51.202Z,0.70
2022-12-06T04:43:36.394Z,0.60
2022-12-06T04:46:03.131Z,0.82
2022-12-06T04:48:31.002Z,1.35
2022-12-06T04:50:57.630Z,0.80
2022-12-06T04:53:24.337Z,0.50
2022-12-06T04:55:53.773Z,0.82
2022-12-06T04:58:20.362Z,0.50
2022-12-06T05:00:47.064Z,0.55
2022-12-06T05:03:15.041Z,0.40
2022-12-06T05:05:42.595Z,0.70
2022-12-06T05:08:10.154Z,0.35
2022-12-06T05:10:37.293Z,0.52
2022-12-06T05:13:04.414Z,0.50
2022-12-06T05:15:31.561Z,0.60
2022-12-06T05:17:58.383Z,1.08
2022-12-06T05:20:25.217Z,0.50
2022-12-06T05:22:51.906Z,0.45
2022-12-06T05:25:20.522Z,0.40
2022-12-06T05:27:47.234Z,0.38
2022-12-06T05:30:14.352Z,0.57
2022-12-06T05:32:41.005Z,2.15
2022-12-06T05:35:08.240Z,0.77
2022-12-06T05:37:34.940Z,0.55
2022-12-06T05:40:02.008Z,0.40
2022-12-06T05:42:28.928Z,0.30
2022-12-06T05:44:55.508Z,0.30
2022-12-06T05:47:22.179Z,1.17
2022-12-06T05:49:48.778Z,0.30
2022-12-06T05:52:15.520Z,0.30
2022-12-06T05:54:42.344Z,0.40
2022-12-06T05:57:08.921Z,0.40
2022-12-06T05:59:35.547Z,0.28
2022-12-06T06:02:02.328Z,0.50
2022-12-06T06:04:29.112Z,0.30
2022-12-06T06:06:55.831Z,0.40
2022-12-06T06:09:23.420Z,0.40
2022-12-06T06:11:50.046Z,0.55
2022-12-06T06:14:16.683Z,0.45
2022-12-06T06:16:43.747Z,0.40
2022-12-06T06:19:10.488Z,0.40
2022-12-06T06:21:37.111Z,0.65
2022-12-06T06:24:03.968Z,0.30
2022-12-06T06:26:30.697Z,0.60
2022-12-06T06:28:57.335Z,0.40
2022-12-06T06:31:24.008Z,0.35
2022-12-06T06:33:50.683Z,0.40
2022-12-06T06:36:17.362Z,1.38
2022-12-06T06:38:44.040Z,0.30
2022-12-06T06:41:12.348Z,0.40
2022-12-06T06:43:38.942Z,0.43
2022-12-06T06:46:07.226Z,0.40
2022-12-06T06:48:36.851Z,0.85
2022-12-06T06:51:05.865Z,0.50
2022-12-06T06:53:33.073Z,0.32
2022-12-06T06:55:59.676Z,0.40
2022-12-06T06:58:26.431Z,0.60
2022-12-06T07:00:57.892Z,0.28
2022-12-06T07:03:25.631Z,0.30
2022-12-06T07:05:58.902Z,0.20
2022-12-06T07:08:27.574Z,0.30
2022-12-06T07:10:54.706Z,0.43
2022-12-06T07:13:22.944Z,0.50
2022-12-06T07:15:49.923Z,0.20
2022-12-06T07:18:19.599Z,0.22
2022-12-06T07:20:47.942Z,0.20
2022-12-06T07:23:15.647Z,0.30
2022-12-06T07:25:42.273Z,0.30
2022-12-06T07:28:09.353Z,0.40
2022-12-06T07:30:36.054Z,0.50
2022-12-06T07:33:02.727Z,0.65
2022-12-06T07:35:48.567Z,0.50
2022-12-06T07:38:16.035Z,0.73
2022-12-06T07:43:47.711Z,0.30
2022-12-06T07:46:14.402Z,0.40
2022-12-06T07:48:41.019Z,0.20
2022-12-06T07:51:08.014Z,0.40
2022-12-06T07:53:34.792Z,0.25
2022-12-06T07:56:08.199Z,0.60
2022-12-06T07:58:34.871Z,0.38
2022-12-06T08:01:04.257Z,0.50
2022-12-06T08:03:31.291Z,0.60
2022-12-06T08:05:58.159Z,0.30
2022-12-06T08:08:28.455Z,0.50
2022-12-06T08:11:00.160Z,0.70
2022-12-06T08:13:27.008Z,0.85
2022-12-06T08:15:53.720Z,0.60
2022-12-06T08:18:20.526Z,0.88
2022-12-06T08:20:47.179Z,0.82
2022-12-06T08:23:14.039Z,0.30
2022-12-06T08:25:40.880Z,0.60
2022-12-06T08:28:07.507Z,1.20
2022-12-06T08:30:34.280Z,0.70
2022-12-06T08:33:00.998Z,0.90
2022-12-06T08:35:27.657Z,0.85
2022-12-06T08:37:54.358Z,0.70
2022-12-06T08:40:21.120Z,0.70
2022-12-06T08:42:47.812Z,0.50
2022-12-06T08:45:14.411Z,0.40
2022-12-06T08:47:41.075Z,0.57
2022-12-06T08:50:08.040Z,0.70
2022-12-06T08:52:35.037Z,0.88
2022-12-06T08:55:01.853Z,0.80
2022-12-06T08:57:28.498Z,0.70
2022-12-06T08:59:55.665Z,1.05
2022-12-06T09:02:22.306Z,0.90
2022-12-06T09:04:51.725Z,0.68
2022-12-06T09:07:19.043Z,1.02
2022-12-06T09:09:46.378Z,0.82
2022-12-06T09:12:13.722Z,1.42
2022-12-06T09:14:40.839Z,1.00
2022-12-06T09:17:07.605Z,0.90
2022-12-06T09:19:34.908Z,1.20
2022-12-06T09:22:01.855Z,0.70
2022-12-06T09:24:28.569Z,0.65
2022-12-06T09:26:55.312Z,1.80
2022-12-06T09:29:22.516Z,1.80
2022-12-06T09:31:49.432Z,2.33
2022-12-06T09:34:17.299Z,2.22
2022-12-06T09:36:49.681Z,2.28
2022-12-06T09:42:16.012Z,2.30
2022-12-06T09:45:10.370Z,1.50
2022-12-06T09:47:58.479Z,1.58
2022-12-06T09:50:28.024Z,1.70
2022-12-06T09:53:00.372Z,1.30
2022-12-06T09:58:39.334Z,1.13
2022-12-06T10:01:24.723Z,0.80
2022-12-06T10:04:08.037Z,1.30
2022-12-06T10:06:44.722Z,1.08
2022-12-06T10:09:32.300Z,0.70
2022-12-06T10:12:36.709Z,1.02
2022-12-06T10:15:32.638Z,1.15
2022-12-06T10:18:17.814Z,1.02
2022-12-06T10:21:04.863Z,1.15
2022-12-06T10:24:01.636Z,1.05
2022-12-06T10:26:53.306Z,0.90
2022-12-06T10:29:29.375Z,1.02
2022-12-06T10:31:57.018Z,0.82
2022-12-06T10:34:49.607Z,0.60
2022-12-06T10:37:25.773Z,1.00
2022-12-06T10:40:12.513Z,0.60
2022-12-06T10:42:45.218Z,0.47
2022-12-06T10:45:41.616Z,0.60
2022-12-06T10:48:20.950Z,0.50
2022-12-06T10:50:55.875Z,0.40
2022-12-06T10:53:31.916Z,0.30
2022-12-06T10:56:07.288Z,0.57
2022-12-06T10:58:46.572Z,0.43
2022-12-06T11:01:26.322Z,1.65
2022-12-06T11:04:02.420Z,0.50
2022-12-06T11:06:49.991Z,0.47
2022-12-06T11:09:32.183Z,0.60
2022-12-06T11:11:59.695Z,0.60
2022-12-06T11:14:54.482Z,0.70
2022-12-06T11:17:24.411Z,0.68
2022-12-06T11:19:56.872Z,0.90
2022-12-06T11:23:11.222Z,2.95
2022-12-06T11:26:00.342Z,0.82
2022-12-06T11:28:38.438Z,1.88
2022-12-06T11:31:31.259Z,0.90
2022-12-06T11:33:59.260Z,1.00
2022-12-06T11:36:27.177Z,0.80
2022-12-06T11:38:53.883Z,1.10
2022-12-06T11:41:27.884Z,0.90
2022-12-06T11:43:56.323Z,0.98
2022-12-06T11:46:24.234Z,0.98
2022-12-06T11:48:51.495Z,0.70
2022-12-06T11:51:24.411Z,1.13
2022-12-06T11:53:54.771Z,0.93
2022-12-06T11:56:27.528Z,0.77
2022-12-06T11:59:08.022Z,0.90
2022-12-06T12:01:44.582Z,1.38
2022-12-06T12:04:26.332Z,1.33
2022-12-06T12:07:02.742Z,1.75
2022-12-06T12:09:35.513Z,1.50
2022-12-06T12:12:13.044Z,1.63
2022-12-06T12:14:43.193Z,1.08
2022-12-06T12:17:19.411Z,1.58
2022-12-06T12:19:59.118Z,1.50
2022-12-06T12:22:35.809Z,1.52
2022-12-06T12:25:27.639Z,1.58
2022-12-06T12:27:58.945Z,1.48
2022-12-06T12:30:53.577Z,1.70
2022-12-06T12:33:22.993Z,2.45
2022-12-06T12:36:04.862Z,1.80
2022-12-06T12:38:31.429Z,1.88
2022-12-06T12:41:19.178Z,2.30
2022-12-06T12:47:14.006Z,1.90
2022-12-06T12:49:41.115Z,1.90
2022-12-06T12:52:28.309Z,2.00
2022-12-06T12:55:21.086Z,1.70
2022-12-06T13:00:24.990Z,2.10
2022-12-06T13:03:00.939Z,2.42
2022-12-06T13:05:39.642Z,2.30
2022-12-06T13:08:15.887Z,2.42
2022-12-06T13:10:47.136Z,1.83
2022-12-06T13:13:26.484Z,2.38
2022-12-06T13:15:56.588Z,2.40
2022-12-06T13:18:41.375Z,1.55
2022-12-06T13:21:27.870Z,1.88
2022-12-06T13:24:17.545Z,1.35
2022-12-06T13:26:55.844Z,2.65
2022-12-06T13:29:25.613Z,0.98
2022-12-06T13:31:54.846Z,0.88
2022-12-06T13:34:39.263Z,0.60
2022-12-06T13:37:29.307Z,0.80
2022-12-06T13:39:57.114Z,0.93
2022-12-06T13:42:45.724Z,0.93
2022-12-06T13:45:34.553Z,1.70
2022-12-06T13:48:01.280Z,1.20
2022-12-06T13:50:29.342Z,1.08
2022-12-06T13:52:55.994Z,0.70
2022-12-06T13:55:25.539Z,1.00
2022-12-06T13:57:55.090Z,0.68
2022-12-06T14:00:31.017Z,0.95
2022-12-06T14:03:19.433Z,1.45
2022-12-06T14:06:14.728Z,0.98
2022-12-06T14:08:59.545Z,0.80
2022-12-06T14:11:36.627Z,0.80
2022-12-06T14:14:15.295Z,1.83
2022-12-06T14:16:44.068Z,1.00
2022-12-06T14:19:18.035Z,0.93
2022-12-06T14:22:16.847Z,1.20
2022-12-06T14:25:07.847Z,0.73
2022-12-06T14:27:45.795Z,0.70
2022-12-06T14:30:22.054Z,0.80
2022-12-06T14:32:55.029Z,0.70
2022-12-06T14:35:36.148Z,0.60
2022-12-06T14:38:21.426Z,0.52
2022-12-06T14:41:07.278Z,0.75
2022-12-06T14:43:35.395Z,0.80
2022-12-06T14:46:05.906Z,0.98
2022-12-06T14:48:52.260Z,1.15
2022-12-06T14:51:25.555Z,0.70
2022-12-06T14:53:52.256Z,1.10
2022-12-06T14:56:30.809Z,1.48
2022-12-06T14:58:59.331Z,1.55
2022-12-06T15:01:28.902Z,1.80
2022-12-06T15:04:04.183Z,1.70
2022-12-06T15:06:33.276Z,0.95
2022-12-06T15:08:59.895Z,1.02
2022-12-06T15:11:48.186Z,1.45
2022-12-06T15:14:16.946Z,1.60
2022-12-06T15:16:54.818Z,1.55
2022-12-06T15:19:21.621Z,1.20
2022-12-06T15:21:55.360Z,1.38
2022-12-06T15:24:27.287Z,1.20
2022-12-06T15:26:54.461Z,1.10
2022-12-06T15:29:21.843Z,1.35
2022-12-06T15:31:51.556Z,2.10
2022-12-06T15:34:20.840Z,1.75
2022-12-06T15:36:48.379Z,1.15
2022-12-06T15:39:15.164Z,1.30
2022-12-06T15:41:42.526Z,1.13
2022-12-06T15:44:17.870Z,0.98
2022-12-06T15:46:45.583Z,0.70
2022-12-06T15:49:18.186Z,1.00
2022-12-06T15:51:46.314Z,0.82
2022-12-06T15:54:19.061Z,0.95
2022-12-06T15:56:47.166Z,1.00
2022-12-06T15:59:14.539Z,1.30
2022-12-06T16:01:49.673Z,0.98
2022-12-06T16:04:18.733Z,1.48
2022-12-06T16:06:46.261Z,1.35
2022-12-06T16:09:15.386Z,1.00
2022-12-06T16:11:42.365Z,1.60
2022-12-06T16:14:10.083Z,1.60
2022-12-06T16:16:43.063Z,1.90
2022-12-06T16:19:10.565Z,0.88
2022-12-06T16:21:51.797Z,0.88
2022-12-06T16:24:18.462Z,1.00
2022-12-06T16:26:45.879Z,0.70
2022-12-06T16:29:20.599Z,1.30
2022-12-06T16:31:47.475Z,1.10
2022-12-06T16:34:14.813Z,1.88
2022-12-06T16:37:13.770Z,1.80
2022-12-06T16:39:40.480Z,1.98
2022-12-06T16:42:07.208Z,2.63
2022-12-06T16:44:51.149Z,3.08
2022-12-06T16:47:18.054Z,2.60
2022-12-06T16:49:46.835Z,2.58
2022-12-06T16:52:15.648Z,2.63
2022-12-06T16:54:42.579Z,3.85
2022-12-06T16:57:11.915Z,3.10
2022-12-06T16:59:38.657Z,2.80
2022-12-06T17:02:23.294Z,2.50
2022-12-06T17:04:50.029Z,2.42
2022-12-06T17:07:16.663Z,1.95
2022-12-06T17:09:43.493Z,2.05
2022-12-06T17:12:15.166Z,2.30
2022-12-06T17:14:42.143Z,1.77
2022-12-06T17:17:17.230Z,1.95
2022-12-06T17:19:43.928Z,1.95
2022-12-06T17:22:11.454Z,1.95
2022-12-06T17:24:38.688Z,2.50
2022-12-06T17:27:07.008Z,2.65
2022-12-06T17:29:34.331Z,2.30
2022-12-06T17:32:01.317Z,2.83
2022-12-06T17:34:28.083Z,2.67
2022-12-06T17:36:56.067Z,2.75
2022-12-06T17:39:22.806Z,3.33
2022-12-06T17:42:08.288Z,2.65
2022-12-06T17:44:35.222Z,2.63
2022-12-06T17:47:02.554Z,3.35
2022-12-06T17:49:29.300Z,2.95
2022-12-06T17:51:56.411Z,2.85
2022-12-06T17:54:23.311Z,2.92
2022-12-06T17:56:54.091Z,2.67
2022-12-06T17:59:23.638Z,2.72
2022-12-06T18:02:14.275Z,2.40
2022-12-06T18:04:38.723Z,2.42
2022-12-06T18:07:05.362Z,2.63
2022-12-06T18:09:31.986Z,2.60
2022-12-06T18:12:01.097Z,3.58
2022-12-06T18:14:28.324Z,3.17
2022-12-06T18:16:55.696Z,3.28
2022-12-06T18:19:23.325Z,2.83
2022-12-06T18:21:52.337Z,3.05
2022-12-06T18:24:22.739Z,3.67
2022-12-06T18:26:51.697Z,17.60
2022-12-06T18:29:23.427Z,18.42
2022-12-06T18:31:51.597Z,5.90
2022-12-06T18:34:18.604Z,3.50
2022-12-06T18:36:45.404Z,3.40
2022-12-06T18:39:15.880Z,3.90
2022-12-06T18:41:46.423Z,3.88
2022-12-06T18:44:13.743Z,3.72
2022-12-06T18:46:42.701Z,3.65
2022-12-06T18:49:11.214Z,4.28
2022-12-06T18:51:41.475Z,2.42
2022-12-06T18:54:10.810Z,2.47
2022-12-06T18:56:37.435Z,2.78
2022-12-06T18:59:05.953Z,2.90
2022-12-06T19:01:35.425Z,2.90
2022-12-06T19:04:03.920Z,3.38
2022-12-06T19:06:33.008Z,3.47
2022-12-06T19:09:08.160Z,3.10
2022-12-06T19:11:40.166Z,3.85
2022-12-06T19:14:09.047Z,3.67
2022-12-06T19:16:40.472Z,3.78
2022-12-06T19:19:16.507Z,3.15
2022-12-06T19:21:45.195Z,4.25
2022-12-06T19:24:13.176Z,3.78
2022-12-06T19:26:41.611Z,3.70
2022-12-06T19:29:08.670Z,4.10
2022-12-06T19:31:35.646Z,3.95
2022-12-06T19:34:02.302Z,3.75
2022-12-06T19:36:30.750Z,4.10
2022-12-06T19:39:03.121Z,4.00
2022-12-06T19:44:15.392Z,4.88
2022-12-06T19:46:44.303Z,4.50
2022-12-06T19:49:13.061Z,6.00
2022-12-06T19:51:44.359Z,4.68
2022-12-06T19:54:15.478Z,3.95
2022-12-06T19:56:42.164Z,3.85
2022-12-06T19:59:11.781Z,4.07
2022-12-06T20:01:40.912Z,3.80
2022-12-06T20:04:09.597Z,4.28
2022-12-06T20:06:36.693Z,3.90
2022-12-06T20:09:04.237Z,3.42
2022-12-06T20:11:49.650Z,3.60
2022-12-06T20:14:18.278Z,3.05
2022-12-06T20:16:45.212Z,3.67
2022-12-06T20:19:15.473Z,3.47
2022-12-06T20:21:42.818Z,2.85
2022-12-06T20:24:11.188Z,2.97
2022-12-06T20:26:38.182Z,2.83
2022-12-06T20:29:05.093Z,3.65
2022-12-06T20:31:32.338Z,4.00
2022-12-06T20:34:01.324Z,4.18
2022-12-06T20:36:30.372Z,3.58
2022-12-06T20:38:57.475Z,4.18
2022-12-06T20:41:26.152Z,3.45
2022-12-06T20:43:53.436Z,3.08
2022-12-06T20:46:25.832Z,3.35
2022-12-06T20:51:25.822Z,4.10
2022-12-06T20:53:54.192Z,5.18
2022-12-06T20:56:22.391Z,5.10
2022-12-06T20:58:51.951Z,4.72
2022-12-06T21:01:23.860Z,5.80
2022-12-06T21:03:52.365Z,5.50
2022-12-06T21:06:20.420Z,6.45
2022-12-06T21:08:47.671Z,5.72
2022-12-06T21:11:23.631Z,5.35
2022-12-06T21:13:55.044Z,6.00
2022-12-06T21:16:32.262Z,5.50
2022-12-06T21:19:01.991Z,5.80
2022-12-06T21:21:32.587Z,5.25
2022-12-06T21:24:00.845Z,5.75
2022-12-06T21:26:29.354Z,5.72
2022-12-06T21:28:58.435Z,5.43
2022-12-06T21:31:34.625Z,5.95
2022-12-06T21:34:01.918Z,6.47
2022-12-06T21:36:28.601Z,5.93
2022-12-06T21:38:55.781Z,6.32
2022-12-06T21:41:22.445Z,5.55
2022-12-06T21:43:49.544Z,5.20
2022-12-06T21:46:21.887Z,5.90
2022-12-06T21:51:20.040Z,5.45
2022-12-06T21:53:46.796Z,6.57
2022-12-06T21:56:17.316Z,6.07
2022-12-06T21:58:44.738Z,5.93
2022-12-06T22:01:16.805Z,6.40
2022-12-06T22:03:44.650Z,6.40
2022-12-06T22:06:13.650Z,5.10
2022-12-06T22:08:59.083Z,5.65
2022-12-06T22:11:38.314Z,8.60
2022-12-06T22:14:05.474Z,5.97
2022-12-06T22:16:33.331Z,6.18
2022-12-06T22:19:00.057Z,6.88
2022-12-06T22:21:28.945Z,5.82
2022-12-06T22:23:59.670Z,6.90
2022-12-06T22:26:28.454Z,7.03
2022-12-06T22:28:55.353Z,6.45
2022-12-06T22:31:31.741Z,6.53
2022-12-06T22:34:00.676Z,6.82
2022-12-06T22:36:28.055Z,6.63
2022-12-06T22:38:57.128Z,8.32
2022-12-06T22:41:24.947Z,6.80
2022-12-06T22:43:53.730Z,6.90
2022-12-06T22:46:21.288Z,5.95
2022-12-06T22:48:49.540Z,6.70
2022-12-06T22:51:19.584Z,6.13
2022-12-06T22:53:48.853Z,5.38
2022-12-06T22:56:15.874Z,5.95
2022-12-06T22:58:42.881Z,6.15
2022-12-06T23:01:18.378Z,6.20
2022-12-06T23:03:47.073Z,5.80
2022-12-06T23:06:16.331Z,4.97
2022-12-06T23:08:43.653Z,5.32
2022-12-06T23:11:22.753Z,6.78
2022-12-06T23:13:49.676Z,5.57
2022-12-06T23:16:22.716Z,6.93
2022-12-06T23:18:49.504Z,5.03
2022-12-06T23:21:17.637Z,5.30
2022-12-06T23:23:52.570Z,5.63
2022-12-06T23:26:24.552Z,5.55
2022-12-06T23:28:51.604Z,5.47
2022-12-06T23:31:24.119Z,4.80
2022-12-06T23:33:56.291Z,4.40
2022-12-06T23:36:27.143Z,2.92
2022-12-06T23:38:53.931Z,3.97
2022-12-06T23:41:23.258Z,3.63
2022-12-06T23:43:50.400Z,4.03
2022-12-06T23:46:22.393Z,3.92
2022-12-06T23:51:19.842Z,3.70
2022-12-06T23:53:51.240Z,5.90
2022-12-06T23:56:19.726Z,4.00
2022-12-06T23:58:48.770Z,3.97
